Time;durP1;ratioP1;P1;durP2;ratioP2;P2;SDS_P1;SDS_P2;PMS_P1;PMS_P2;Temp;Humidity;BMP_temperature;BMP_pressure;BME280_temperature;BME280_humidity;BME280_pressure;Samples;Min_cycle;Max_cycle;Signal;HPM_P1;HPM_P2
2023/09/09 00:01:08;;;;;;;18.42;16.52;;;;;;;21.09;90.13;101456.84;5070101;28;20024;-57
2023/09/09 00:03:34;;;;;;;20.58;17.25;;;;;;;21.07;89.84;101458.84;5070390;28;20467;-57
2023/09/09 00:06:10;;;;;;;18.48;16.58;;;;;;;20.95;90.53;101451.94;5069503;28;20024;-57
2023/09/09 00:08:39;;;;;;;18.52;16.48;;;;;;;20.85;90.92;101456.50;5075456;28;20020;-57
2023/09/09 00:11:04;;;;;;;19.80;16.80;;;;;;;20.97;89.95;101454.47;5077898;28;20094;-57
2023/09/09 00:13:30;;;;;;;19.77;17.65;;;;;;;20.94;90.16;101443.94;5068309;28;20036;-57
2023/09/09 00:15:55;;;;;;;20.60;17.20;;;;;;;20.89;89.82;101444.41;5070752;28;20190;-57
2023/09/09 00:18:23;;;;;;;21.13;17.20;;;;;;;20.85;90.56;101437.59;5070154;28;20027;-57
2023/09/09 00:20:49;;;;;;;21.50;17.50;;;;;;;20.59;91.00;101430.16;5070277;28;20024;-57
2023/09/09 00:23:14;;;;;;;20.27;17.95;;;;;;;20.82;90.42;101441.47;5103185;28;20039;-57
2023/09/09 00:25:41;;;;;;;20.52;18.35;;;;;;;20.72;90.95;101443.34;5069656;28;20074;-57
2023/09/09 00:28:09;;;;;;;21.75;18.80;;;;;;;20.64;91.06;101440.50;5070287;28;20024;-57
2023/09/09 00:30:37;;;;;;;20.20;17.92;;;;;;;20.69;90.93;101440.09;5102658;28;20476;-57
2023/09/09 00:33:03;;;;;;;20.70;18.60;;;;;;;20.58;90.84;101436.56;5085493;28;20488;-57
2023/09/09 00:35:29;;;;;;;19.52;17.70;;;;;;;20.65;91.18;101442.25;5102665;28;20028;-57
2023/09/09 00:37:55;;;;;;;20.98;18.88;;;;;;;20.64;90.57;101430.56;5069377;28;20170;-58
2023/09/09 00:40:21;;;;;;;21.45;18.80;;;;;;;20.51;90.95;101437.28;5069328;28;20475;-57
2023/09/09 00:42:47;;;;;;;22.40;19.00;;;;;;;20.50;91.18;101440.94;5068704;28;20028;-57
2023/09/09 00:45:13;;;;;;;22.88;20.40;;;;;;;20.55;90.59;101444.97;5069051;28;20020;-57
2023/09/09 00:47:39;;;;;;;23.63;21.23;;;;;;;20.52;91.28;101438.97;5072318;28;20406;-57
2023/09/09 00:50:09;;;;;;;24.33;21.98;;;;;;;20.48;91.74;101440.28;5073524;28;20028;-57
2023/09/09 00:52:36;;;;;;;26.75;23.95;;;;;;;20.55;92.05;101433.28;5073030;28;20039;-57
2023/09/09 00:55:01;;;;;;;30.73;27.67;;;;;;;20.55;91.92;101439.56;5073985;28;20120;-57
2023/09/09 00:57:27;;;;;;;29.48;26.58;;;;;;;20.55;91.75;101436.00;5074259;28;20419;-57
2023/09/09 00:59:52;;;;;;;27.38;24.88;;;;;;;20.32;92.17;101438.16;5078336;28;20028;-57
2023/09/09 01:02:18;;;;;;;27.48;24.98;;;;;;;20.33;92.23;101429.94;5073741;28;20021;-57
2023/09/09 01:04:46;;;;;;;28.02;25.52;;;;;;;20.37;92.02;101422.38;5065631;28;20499;-57
2023/09/09 01:07:11;;;;;;;30.70;27.73;;;;;;;20.38;91.84;101433.03;5066636;28;20074;-57
2023/09/09 01:09:37;;;;;;;30.48;27.27;;;;;;;20.36;91.77;101436.88;5073851;28;20028;-57
2023/09/09 01:12:03;;;;;;;36.55;29.52;;;;;;;20.36;92.36;101437.72;5073936;28;20034;-57
2023/09/09 01:14:29;;;;;;;33.63;30.33;;;;;;;20.34;92.14;101430.78;5069373;28;20061;-57
2023/09/09 01:16:55;;;;;;;33.30;30.13;;;;;;;20.38;92.19;101434.88;5063119;28;20060;-57
2023/09/09 01:19:27;;;;;;;34.17;30.88;;;;;;;20.24;92.61;101436.22;5073815;28;20471;-57
2023/09/09 01:22:00;;;;;;;36.00;32.55;;;;;;;20.28;92.56;101432.19;5088113;28;20813;-57
2023/09/09 01:24:25;;;;;;;34.88;31.50;;;;;;;20.26;92.54;101434.19;5073263;28;20383;-57
2023/09/09 01:26:51;;;;;;;34.55;31.08;;;;;;;20.26;92.78;101433.34;5071147;28;20028;-57
2023/09/09 01:29:16;;;;;;;34.17;30.67;;;;;;;20.15;93.04;101424.41;5105955;28;20070;-57
2023/09/09 01:31:42;;;;;;;36.47;32.83;;;;;;;20.14;92.95;101425.41;5071289;28;20028;-57
2023/09/09 01:34:07;;;;;;;36.05;32.70;;;;;;;20.09;93.09;101427.72;5067992;28;20033;-57
2023/09/09 01:36:32;;;;;;;37.00;33.42;;;;;;;20.09;93.34;101418.72;5102039;28;20045;-57
2023/09/09 01:38:58;;;;;;;36.63;33.03;;;;;;;19.99;93.92;101426.84;5071766;28;20044;-57
2023/09/09 01:41:25;;;;;;;37.08;33.47;;;;;;;20.06;93.08;101425.28;5072510;28;20066;-57
2023/09/09 01:43:51;;;;;;;38.47;34.83;;;;;;;19.78;94.05;101423.47;5072586;28;20556;-57
2023/09/09 01:46:16;;;;;;;39.47;35.78;;;;;;;19.86;94.56;101427.16;5072775;28;20057;-57
2023/09/09 01:48:42;;;;;;;38.92;34.70;;;;;;;19.83;94.34;101432.84;5072793;28;20038;-57
2023/09/09 01:51:07;;;;;;;37.30;33.65;;;;;;;19.89;94.02;101426.03;5071173;28;20498;-57
2023/09/09 01:53:32;;;;;;;37.47;34.08;;;;;;;19.92;93.77;101428.44;5058186;28;20059;-57
2023/09/09 01:55:58;;;;;;;36.55;32.97;;;;;;;19.87;93.40;101423.44;5086362;28;20020;-57
2023/09/09 01:58:26;;;;;;;37.05;33.55;;;;;;;19.81;93.75;101432.13;5070293;28;20086;-57
2023/09/09 02:00:51;;;;;;;39.40;35.35;;;;;;;19.75;94.20;101430.00;5056151;28;20106;-57
2023/09/09 02:03:16;;;;;;;40.03;36.20;;;;;;;19.82;93.91;101427.56;5071304;28;20052;-57
2023/09/09 02:05:42;;;;;;;42.10;38.13;;;;;;;19.76;94.35;101428.13;5073162;28;20379;-57
2023/09/09 02:08:07;;;;;;;41.70;37.80;;;;;;;19.82;94.23;101432.97;5075334;28;20024;-57
2023/09/09 02:10:33;;;;;;;41.08;37.33;;;;;;;19.81;94.49;101423.19;5073331;28;20540;-57
2023/09/09 02:12:58;;;;;;;41.05;37.33;;;;;;;19.83;93.97;101419.34;5072517;28;20032;-57
2023/09/09 02:15:23;;;;;;;43.72;39.42;;;;;;;19.71;94.58;101413.25;5072091;28;20056;-57
2023/09/09 02:17:49;;;;;;;43.30;39.20;;;;;;;19.72;94.41;101422.19;5070667;28;20103;-57
2023/09/09 02:20:14;;;;;;;40.40;36.63;;;;;;;19.65;94.03;101403.00;5071844;28;20029;-57
2023/09/09 02:22:40;;;;;;;42.03;38.22;;;;;;;19.69;94.41;101428.72;5072054;28;20021;-57
2023/09/09 02:25:07;;;;;;;40.80;36.90;;;;;;;19.73;93.58;101424.72;5095993;28;20025;-57
2023/09/09 02:27:32;;;;;;;44.08;39.97;;;;;;;19.48;94.91;101418.03;5087638;27;20068;-57
2023/09/09 02:30:01;;;;;;;43.58;39.47;;;;;;;19.48;95.14;101425.28;5071018;28;20081;-57
2023/09/09 02:32:26;;;;;;;44.78;40.58;;;;;;;19.46;95.92;101430.78;5071670;28;20550;-57
2023/09/09 02:34:52;;;;;;;45.72;41.28;;;;;;;19.43;95.79;101422.13;5071451;28;20129;-57
2023/09/09 02:37:24;;;;;;;49.35;44.63;;;;;;;19.44;96.48;101424.72;5071362;28;20118;-57
2023/09/09 02:39:53;;;;;;;50.85;46.15;;;;;;;19.47;96.50;101429.81;5071428;28;20028;-57
2023/09/09 02:42:21;;;;;;;50.42;45.45;;;;;;;19.50;96.51;101432.25;5069662;28;20028;-57
2023/09/09 02:44:47;;;;;;;51.33;46.45;;;;;;;19.54;96.20;101424.72;5070843;28;20578;-57
2023/09/09 02:47:13;;;;;;;49.83;44.95;;;;;;;19.43;95.89;101422.13;5071178;28;20032;-57
2023/09/09 02:49:41;;;;;;;53.33;47.97;;;;;;;19.43;96.49;101428.38;5071635;28;20542;-57
2023/09/09 02:52:07;;;;;;;54.55;49.25;;;;;;;19.35;96.55;101435.47;5069930;28;20044;-57
2023/09/09 02:54:34;;;;;;;59.15;53.20;;;;;;;19.43;97.08;101424.84;5071996;28;20060;-57
2023/09/09 02:56:59;;;;;;;56.20;50.75;;;;;;;19.44;97.16;101427.41;5068723;28;20115;-58
2023/09/09 02:59:25;;;;;;;57.83;51.80;;;;;;;19.46;97.22;101429.94;5072415;28;20093;-57
2023/09/09 03:01:50;;;;;;;60.20;54.28;;;;;;;19.45;96.88;101425.56;5070959;28;20094;-57
2023/09/09 03:04:19;;;;;;;60.72;54.75;;;;;;;19.48;96.57;101426.13;5064297;28;20382;-57
2023/09/09 03:06:45;;;;;;;57.28;51.78;;;;;;;19.31;96.50;101426.81;5049979;28;20040;-57
2023/09/09 03:09:10;;;;;;;55.85;50.47;;;;;;;19.37;96.11;101422.69;5086640;27;20032;-57
2023/09/09 03:11:36;;;;;;;53.75;48.60;;;;;;;19.42;95.65;101423.97;5056469;28;20032;-57
2023/09/09 03:14:01;;;;;;;52.75;47.55;;;;;;;19.37;95.31;101423.53;5071913;28;20028;-57
2023/09/09 03:16:27;;;;;;;54.97;49.78;;;;;;;19.25;95.70;101435.44;5071493;28;20078;-57
2023/09/09 03:18:52;;;;;;;56.70;51.47;;;;;;;19.31;96.02;101428.66;5072741;28;20403;-57
2023/09/09 03:21:17;;;;;;;55.35;49.95;;;;;;;19.30;95.98;101430.50;5082477;28;20052;-57
2023/09/09 03:23:43;;;;;;;55.10;50.03;;;;;;;19.12;96.10;101422.22;5071745;28;20021;-57
2023/09/09 03:26:09;;;;;;;57.80;52.10;;;;;;;19.06;96.42;101426.34;5070243;28;20023;-57
2023/09/09 03:28:37;;;;;;;55.38;50.00;;;;;;;19.12;96.35;101424.06;5071850;28;20070;-57
2023/09/09 03:31:02;;;;;;;55.15;49.88;;;;;;;19.09;96.20;101424.31;5071645;28;20146;-57
2023/09/09 03:33:28;;;;;;;56.58;50.97;;;;;;;19.18;96.05;101426.22;5072328;28;20056;-57
2023/09/09 03:35:55;;;;;;;59.75;53.95;;;;;;;19.16;95.83;101420.09;5103114;28;20032;-57
2023/09/09 03:38:21;;;;;;;58.30;52.42;;;;;;;19.06;96.02;101423.63;5071506;28;20035;-57
2023/09/09 03:40:46;;;;;;;59.90;54.10;;;;;;;19.15;95.66;101419.25;5071166;28;20509;-57
2023/09/09 03:43:12;;;;;;;61.13;55.10;;;;;;;19.13;95.72;101426.63;5071179;28;20032;-57
2023/09/09 03:45:37;;;;;;;59.30;53.65;;;;;;;19.05;95.70;101421.06;5069487;28;20399;-57
2023/09/09 03:48:06;;;;;;;64.97;58.67;;;;;;;19.08;95.98;101426.19;5069294;28;20032;-57
2023/09/09 03:50:33;;;;;;;64.15;57.78;;;;;;;18.90;96.17;101425.13;5065887;28;20120;-57
2023/09/09 03:52:58;;;;;;;64.40;58.08;;;;;;;18.91;96.43;101427.69;5051044;28;20377;-57
2023/09/09 03:55:24;;;;;;;66.25;59.65;;;;;;;18.91;96.30;101435.75;5055843;28;20047;-57
2023/09/09 03:57:51;;;;;;;71.07;63.95;;;;;;;18.92;96.66;101429.41;5070412;28;20475;-57
2023/09/09 04:00:17;;;;;;;73.32;66.18;;;;;;;18.75;97.23;101432.75;5072909;28;20462;-57
2023/09/09 04:02:43;;;;;;;75.20;67.80;;;;;;;18.76;97.03;101424.50;5068809;28;20020;-57
2023/09/09 04:05:08;;;;;;;73.40;66.10;;;;;;;18.82;96.53;101426.69;5069671;28;20043;-57
2023/09/09 04:07:35;;;;;;;73.22;66.10;;;;;;;18.73;96.67;101440.94;5070303;28;20024;-57
2023/09/09 04:10:02;;;;;;;74.43;66.97;;;;;;;18.68;96.85;101443.19;5070928;28;20377;-57
2023/09/09 04:12:27;;;;;;;73.90;66.63;;;;;;;18.65;97.18;101429.97;5102455;28;20021;-57
2023/09/09 04:14:53;;;;;;;71.82;64.80;;;;;;;18.76;96.84;101432.59;5102189;28;20029;-56
2023/09/09 04:17:21;;;;;;;73.97;66.82;;;;;;;18.73;97.11;101434.69;5070197;28;20097;-57
2023/09/09 04:19:49;;;;;;;73.80;66.80;;;;;;;18.71;96.99;101429.44;5070675;28;20055;-57
2023/09/09 04:22:14;;;;;;;69.72;62.88;;;;;;;18.71;96.68;101428.59;5046638;28;20079;-57
2023/09/09 04:24:39;;;;;;;72.35;65.15;;;;;;;18.68;96.63;101424.31;5075472;28;20024;-57
2023/09/09 04:27:05;;;;;;;74.07;66.72;;;;;;;18.67;96.30;101435.22;5069587;28;20024;-57
2023/09/09 04:29:30;;;;;;;74.35;66.70;;;;;;;18.63;96.86;101429.25;5090633;28;20023;-57
2023/09/09 04:31:56;;;;;;;73.28;66.07;;;;;;;18.58;96.38;101431.50;5084509;28;20055;-57
2023/09/09 04:34:21;;;;;;;69.72;62.88;;;;;;;18.67;96.06;101435.22;5077404;28;20496;-57
2023/09/09 04:36:49;;;;;;;68.43;61.53;;;;;;;18.50;95.90;101440.25;5089689;28;20400;-57
2023/09/09 04:39:15;;;;;;;71.47;64.60;;;;;;;18.54;96.10;101440.84;5073378;28;20032;-57
2023/09/09 04:41:41;;;;;;;71.15;64.15;;;;;;;18.43;96.75;101439.06;5103159;27;20019;-57
2023/09/09 04:44:07;;;;;;;70.82;63.92;;;;;;;18.50;96.50;101448.34;5066034;28;20021;-57
2023/09/09 04:46:32;;;;;;;69.43;62.63;;;;;;;18.51;96.03;101441.09;5069667;28;20029;-57
2023/09/09 04:48:57;;;;;;;69.30;62.40;;;;;;;18.48;95.83;101447.63;5074352;28;20059;-57
2023/09/09 04:51:23;;;;;;;68.28;61.33;;;;;;;18.38;96.14;101444.88;5073904;28;20021;-57
2023/09/09 04:53:50;;;;;;;69.03;62.17;;;;;;;18.45;95.97;101455.13;5073515;28;20035;-57
2023/09/09 04:56:15;;;;;;;69.68;62.75;;;;;;;18.34;96.47;101453.34;5073946;28;20028;-57
2023/09/09 04:58:41;;;;;;;72.07;64.97;;;;;;;18.37;96.68;101447.69;5074010;28;20021;-57
2023/09/09 05:01:09;;;;;;;73.15;65.85;;;;;;;18.32;96.86;101447.22;5073474;28;20124;-57
2023/09/09 05:03:34;;;;;;;85.38;76.47;;;;;;;18.36;98.43;101454.91;5105257;28;20012;-57
2023/09/09 05:06:00;;;;;;;82.20;73.93;;;;;;;18.33;98.37;101448.94;5055529;28;20021;-57
2023/09/09 05:08:25;;;;;;;84.88;76.28;;;;;;;18.40;98.50;101450.13;5072630;28;20028;-57
2023/09/09 05:10:50;;;;;;;83.47;74.90;;;;;;;18.31;98.47;101446.38;5073667;28;20048;-57
2023/09/09 05:13:16;;;;;;;87.15;78.05;;;;;;;18.37;99.13;101448.53;5105965;28;20106;-57
2023/09/09 05:15:42;;;;;;;84.90;76.38;;;;;;;18.29;99.21;101453.72;5073562;28;20044;-57
2023/09/09 05:18:07;;;;;;;104.72;82.50;;;;;;;18.38;100.00;101457.47;5073602;28;20031;-57
2023/09/09 05:20:32;;;;;;;97.35;82.18;;;;;;;18.38;100.00;101450.25;5073532;28;20432;-57
2023/09/09 05:22:58;;;;;;;106.90;83.28;;;;;;;18.24;100.00;101455.97;5089757;28;20021;-57
2023/09/09 05:25:23;;;;;;;101.38;85.93;;;;;;;18.26;100.00;101453.13;5089426;28;20031;-57
2023/09/09 05:27:49;;;;;;;88.45;79.78;;;;;;;18.38;100.00;101452.06;5073924;28;20103;-57
2023/09/09 05:30:14;;;;;;;168.73;87.85;;;;;;;18.33;100.00;101457.88;5106242;28;20115;-57
2023/09/09 05:32:42;;;;;;;130.88;87.28;;;;;;;18.25;100.00;101464.91;5088566;28;20041;-57
2023/09/09 05:35:10;;;;;;;171.23;93.47;;;;;;;18.23;100.00;101462.34;5073251;28;20025;-57
2023/09/09 05:37:38;;;;;;;269.95;100.32;;;;;;;18.13;100.00;101474.88;5073637;28;20093;-57
2023/09/09 05:40:04;;;;;;;120.75;94.68;;;;;;;18.16;100.00;101470.09;5055616;28;20044;-57
2023/09/09 05:42:29;;;;;;;239.73;96.80;;;;;;;18.19;100.00;101466.28;5077053;28;20126;-57
2023/09/09 05:44:55;;;;;;;145.90;91.80;;;;;;;18.14;100.00;101471.19;5082230;28;20028;-57
2023/09/09 05:47:20;;;;;;;124.88;92.00;;;;;;;18.16;100.00;101471.94;5068378;28;20170;-57
2023/09/09 05:49:45;;;;;;;388.55;92.63;;;;;;;17.97;100.00;101474.47;5059732;28;20031;-57
2023/09/09 05:52:12;;;;;;;166.25;92.32;;;;;;;18.00;100.00;101479.59;5071210;28;20479;-57
2023/09/09 05:54:38;;;;;;;433.05;92.15;;;;;;;17.91;100.00;101465.94;5070334;28;20056;-57
2023/09/09 05:57:04;;;;;;;233.07;87.50;;;;;;;17.99;100.00;101476.03;5070667;28;20433;-57
2023/09/09 05:59:29;;;;;;;116.30;86.88;;;;;;;18.01;100.00;101481.31;5070905;28;20453;-57
2023/09/09 06:01:55;;;;;;;249.35;88.70;;;;;;;17.95;100.00;101480.00;5070737;28;20111;-57
2023/09/09 06:04:20;;;;;;;507.95;91.63;;;;;;;17.78;100.00;101491.31;5093173;28;20460;-57
2023/09/09 06:06:46;;;;;;;288.23;86.75;;;;;;;17.76;100.00;101482.47;5071107;28;20058;-57
2023/09/09 06:09:11;;;;;;;231.35;88.95;;;;;;;17.82;100.00;101471.22;5070242;28;20032;-57
2023/09/09 06:11:37;;;;;;;297.02;87.93;;;;;;;17.83;100.00;101489.09;5070082;28;20028;-57
2023/09/09 06:14:03;;;;;;;209.65;81.53;;;;;;;17.88;100.00;101495.81;5070117;28;20036;-60
2023/09/09 06:16:28;;;;;;;337.73;84.65;;;;;;;17.86;100.00;101496.91;5071551;28;20035;-57
2023/09/09 06:18:54;;;;;;;216.20;83.60;;;;;;;17.80;100.00;101490.22;5070554;28;20037;-57
2023/09/09 06:21:20;;;;;;;110.30;82.75;;;;;;;17.80;100.00;101500.13;5070684;28;20379;-57
2023/09/09 06:23:46;;;;;;;92.20;82.25;;;;;;;17.87;100.00;101501.31;5070925;28;20020;-57
2023/09/09 06:26:11;;;;;;;125.65;82.45;;;;;;;17.84;100.00;101494.34;5070052;28;20077;-57
2023/09/09 06:28:37;;;;;;;89.10;80.45;;;;;;;18.02;100.00;101502.69;5086220;28;20062;-57
2023/09/09 06:31:02;;;;;;;83.10;75.80;;;;;;;18.25;100.00;101513.38;5070340;28;20032;-57
2023/09/09 06:33:27;;;;;;;84.47;76.78;;;;;;;18.22;100.00;101506.41;5070746;28;20544;-57
2023/09/09 06:35:54;;;;;;;86.05;77.88;;;;;;;18.09;100.00;101501.22;5070338;28;20028;-57
2023/09/09 06:38:19;;;;;;;85.43;77.72;;;;;;;18.16;100.00;101513.16;5070799;28;20025;-57
2023/09/09 06:40:45;;;;;;;87.90;79.00;;;;;;;18.09;100.00;101513.84;5070744;28;20024;-57
2023/09/09 06:43:12;;;;;;;87.07;79.18;;;;;;;18.12;100.00;101517.13;5068638;28;20580;-57
2023/09/09 06:45:38;;;;;;;86.18;78.57;;;;;;;18.19;100.00;101512.06;5070177;28;20028;-57
2023/09/09 06:48:04;;;;;;;89.57;81.32;;;;;;;18.32;100.00;101512.75;5070057;28;20078;-57
2023/09/09 06:50:29;;;;;;;90.90;82.60;;;;;;;18.38;100.00;101520.28;5085670;28;20039;-57
2023/09/09 06:52:55;;;;;;;89.68;81.65;;;;;;;18.34;100.00;101516.13;5101020;28;20123;-57
2023/09/09 06:55:21;;;;;;;94.63;86.03;;;;;;;18.47;100.00;101517.78;5070087;28;20032;-57
2023/09/09 06:57:46;;;;;;;93.63;85.05;;;;;;;18.49;100.00;101515.81;5070014;28;20116;-57
2023/09/09 07:00:12;;;;;;;94.32;85.63;;;;;;;18.43;100.00;101527.97;5069551;28;20017;-57
2023/09/09 07:02:40;;;;;;;91.05;82.53;;;;;;;18.60;100.00;101521.13;5070475;28;20027;-57
2023/09/09 07:05:07;;;;;;;95.22;86.38;;;;;;;18.66;100.00;101522.44;5101589;28;20475;-57
2023/09/09 07:07:32;;;;;;;97.63;88.30;;;;;;;18.69;100.00;101531.13;5069960;28;20028;-57
2023/09/09 07:09:58;;;;;;;96.45;87.10;;;;;;;18.62;100.00;101521.88;5068758;28;20033;-57
2023/09/09 07:12:23;;;;;;;93.30;84.55;;;;;;;18.77;100.00;101525.94;5069581;28;20097;-57
2023/09/09 07:14:49;;;;;;;95.10;85.93;;;;;;;18.90;100.00;101533.81;5069658;28;20190;-57
2023/09/09 07:17:16;;;;;;;99.30;89.53;;;;;;;18.93;100.00;101535.38;5068359;28;20107;-58
2023/09/09 07:19:42;;;;;;;101.18;91.32;;;;;;;18.94;100.00;101537.09;5069946;28;20462;-57
2023/09/09 07:22:07;;;;;;;102.55;92.57;;;;;;;19.01;100.00;101530.19;5066876;28;20104;-57
2023/09/09 07:24:35;;;;;;;103.90;93.80;;;;;;;19.09;100.00;101548.38;5069580;28;20160;-57
2023/09/09 07:27:04;;;;;;;100.75;91.00;;;;;;;19.19;100.00;101533.94;5071017;28;20032;-57
2023/09/09 07:29:30;;;;;;;105.10;94.82;;;;;;;19.27;100.00;101535.97;5070445;28;20051;-57
2023/09/09 07:31:55;;;;;;;107.05;96.25;;;;;;;19.28;100.00;101540.38;5071831;28;20050;-57
2023/09/09 07:34:24;;;;;;;105.90;95.18;;;;;;;19.40;100.00;101543.81;5070624;28;20036;-57
2023/09/09 07:36:50;;;;;;;;;;;;;;;19.59;100.00;101554.69;5069369;28;20048;-58
2023/09/09 07:39:16;;;;;;;102.90;92.80;;;;;;;19.53;100.00;101552.53;5067368;28;20333;-57
2023/09/09 07:41:42;;;;;;;104.00;93.30;;;;;;;19.59;100.00;101549.28;5070558;28;20032;-58
2023/09/09 07:44:07;;;;;;;103.03;93.00;;;;;;;19.61;100.00;101549.97;5069441;28;20119;-57
2023/09/09 07:46:32;;;;;;;101.70;91.85;;;;;;;19.74;100.00;101550.63;5068913;28;20051;-57
2023/09/09 07:48:58;;;;;;;101.22;91.30;;;;;;;19.76;100.00;101555.00;5069229;28;20028;-57
2023/09/09 07:51:23;;;;;;;99.43;89.60;;;;;;;19.80;100.00;101548.34;5069229;28;20502;-58
2023/09/09 07:53:49;;;;;;;101.53;91.40;;;;;;;19.88;99.93;101556.59;5069185;28;20032;-57
2023/09/09 07:56:14;;;;;;;99.20;89.55;;;;;;;19.98;100.00;101556.63;5067979;28;20020;-57
2023/09/09 07:58:40;;;;;;;99.60;89.95;;;;;;;20.06;100.00;101548.66;5068873;28;20024;-57
2023/09/09 08:01:07;;;;;;;110.47;99.70;;;;;;;20.16;100.00;101552.22;5069383;28;20118;-57
2023/09/09 08:03:34;;;;;;;106.05;95.85;;;;;;;20.17;100.00;101548.50;5084062;28;20020;-57
2023/09/09 08:06:06;;;;;;;108.25;97.60;;;;;;;20.24;100.00;101548.81;5069010;28;20024;-57
2023/09/09 08:08:35;;;;;;;99.85;90.07;;;;;;;20.41;98.67;101562.47;5084806;28;20043;-57
2023/09/09 08:11:02;;;;;;;98.70;89.10;;;;;;;20.55;98.16;101557.63;5068207;28;20033;-57
2023/09/09 08:13:27;;;;;;;101.13;91.13;;;;;;;20.68;97.30;101551.91;5048927;28;20029;-57
2023/09/09 08:15:52;;;;;;;97.07;87.75;;;;;;;20.80;97.19;101557.00;5069622;28;20017;-57
2023/09/09 08:18:18;;;;;;;94.50;85.40;;;;;;;20.96;96.36;101556.38;5069301;28;20103;-57
2023/09/09 08:20:44;;;;;;;92.50;83.55;;;;;;;21.05;96.12;101566.31;5069468;28;20025;-57
2023/09/09 08:23:09;;;;;;;91.65;82.72;;;;;;;21.20;95.57;101566.69;5070457;28;20059;-57
2023/09/09 08:25:35;;;;;;;90.25;81.43;;;;;;;21.35;95.07;101572.47;5071112;28;20055;-57
2023/09/09 08:28:03;;;;;;;91.05;82.15;;;;;;;21.42;94.46;101564.66;5103730;28;20444;-57
2023/09/09 08:30:31;;;;;;;85.82;77.47;;;;;;;21.48;93.36;101562.19;5071096;28;20043;-57
2023/09/09 08:32:56;;;;;;;79.22;71.43;;;;;;;21.69;92.39;101570.06;5070856;28;20414;-57
2023/09/09 08:35:23;;;;;;;83.05;74.75;;;;;;;21.85;92.42;101580.22;5070479;28;20029;-57
2023/09/09 08:37:50;;;;;;;83.10;74.47;;;;;;;22.01;91.16;101579.53;5070767;28;20402;-58
2023/09/09 08:40:16;;;;;;;77.38;69.53;;;;;;;22.03;91.08;101582.09;5070928;28;20085;-57
2023/09/09 08:42:58;;;;;;;74.75;67.18;;;;;;;22.27;90.57;101590.50;5071096;28;20100;-57
2023/09/09 08:45:27;;;;;;;74.75;67.47;;;;;;;22.34;89.14;101577.19;5070629;28;20051;-58
2023/09/09 08:47:55;;;;;;;73.57;66.28;;;;;;;22.34;88.16;101583.44;5070660;28;20456;-58
2023/09/09 08:50:24;;;;;;;75.88;68.53;;;;;;;22.37;86.87;101590.41;5069660;28;20044;-57
2023/09/09 08:52:53;;;;;;;72.28;65.35;;;;;;;22.52;87.85;101590.72;5070590;28;20068;-58
2023/09/09 08:55:19;;;;;;;71.55;64.65;;;;;;;22.67;87.59;101594.56;5093523;28;20017;-58
2023/09/09 08:57:46;;;;;;;63.65;57.20;;;;;;;22.73;85.91;101582.22;5070168;28;20024;-58
2023/09/09 09:00:15;;;;;;;48.63;43.88;;;;;;;22.86;83.93;101588.09;5069161;28;20048;-57
2023/09/09 09:02:41;;;;;;;39.45;35.65;;;;;;;22.92;84.64;101584.75;5069921;28;20159;-57
2023/09/09 09:05:09;;;;;;;41.33;37.33;;;;;;;23.02;82.88;101590.09;5080246;28;20132;-58
2023/09/09 09:07:35;;;;;;;30.30;27.15;;;;;;;23.15;81.70;101587.81;5050448;28;20020;-62
2023/09/09 09:10:01;;;;;;;30.42;27.33;;;;;;;23.22;80.90;101588.00;5098329;28;20048;-57
2023/09/09 09:12:28;;;;;;;43.65;39.15;;;;;;;23.42;81.36;101594.06;5072767;28;20025;-57
2023/09/09 09:14:53;;;;;;;38.70;34.53;;;;;;;23.39;82.33;101584.38;5071663;28;20036;-57
2023/09/09 09:17:19;;;;;;;46.15;41.55;;;;;;;23.60;81.20;101600.25;5073138;28;20365;-58
2023/09/09 09:19:47;;;;;;;45.50;40.97;;;;;;;23.64;80.34;101589.88;5072732;28;20028;-58
2023/09/09 09:22:13;;;;;;;39.85;35.95;;;;;;;23.66;80.14;101590.59;5058136;28;20095;-57
2023/09/09 09:24:48;;;;;;;37.17;33.15;;;;;;;23.78;79.21;101606.44;5086243;28;20032;-58
2023/09/09 09:27:14;;;;;;;36.53;31.95;;;;;;;23.91;78.16;101605.13;5054011;28;20032;-58
2023/09/09 09:29:48;;;;;;;46.38;39.80;;;;;;;23.96;77.20;101602.75;5053907;28;20025;-58
2023/09/09 09:32:15;;;;;;;38.22;34.50;;;;;;;24.10;75.30;101599.41;5057755;28;20032;-58
2023/09/09 09:34:41;;;;;;;26.35;23.83;;;;;;;24.06;76.73;101591.72;5072456;28;20020;-58
2023/09/09 09:37:16;;;;;;;26.75;24.00;;;;;;;24.02;75.37;101597.50;5073594;28;20072;-57
2023/09/09 09:39:43;;;;;;;24.38;22.05;;;;;;;24.21;74.26;101599.06;5106367;28;20028;-58
2023/09/09 09:42:12;;;;;;;22.80;20.17;;;;;;;24.37;72.89;101594.66;5073558;28;20035;-58
2023/09/09 09:44:40;;;;;;;21.67;19.33;;;;;;;24.25;73.83;101597.72;5073153;28;20024;-58
2023/09/09 09:47:08;;;;;;;15.40;13.95;;;;;;;24.40;67.83;101599.75;5082580;28;20538;-58
2023/09/09 09:49:34;;;;;;;10.45;9.45;;;;;;;24.55;66.75;101598.09;5091003;28;20031;-61
2023/09/09 09:51:59;;;;;;;12.27;9.95;;;;;;;24.46;68.44;101599.97;5087681;27;20025;-58
2023/09/09 09:54:25;;;;;;;14.90;12.77;;;;;;;24.61;67.32;101597.41;5063919;28;20078;-59
2023/09/09 09:56:52;;;;;;;27.30;17.98;;;;;;;24.62;68.35;101588.25;5072483;28;20468;-58
2023/09/09 09:59:20;;;;;;;21.95;13.30;;;;;;;24.62;66.11;101593.69;5071169;28;20134;-59
2023/09/09 10:01:48;;;;;;;9.05;8.05;;;;;;;24.83;62.89;101603.19;5105413;28;20020;-59
2023/09/09 10:04:17;;;;;;;10.65;8.10;;;;;;;24.99;61.73;101603.16;5072868;28;20020;-59
2023/09/09 10:06:45;;;;;;;9.70;8.70;;;;;;;24.95;61.48;101603.69;5071476;28;20036;-58
2023/09/09 10:09:19;;;;;;;13.43;10.48;;;;;;;25.15;62.21;101595.00;5072817;28;20024;-59
2023/09/09 10:11:57;;;;;;;9.02;8.23;;;;;;;25.17;67.72;101596.69;5072464;28;20035;-59
2023/09/09 10:14:26;;;;;;;16.33;12.38;;;;;;;25.19;63.89;101597.38;5072557;28;20090;-58
2023/09/09 10:16:53;;;;;;;13.07;11.88;;;;;;;25.27;64.57;101592.75;5072554;28;20399;-59
2023/09/09 10:19:19;;;;;;;9.95;8.95;;;;;;;25.48;63.64;101588.59;5054928;28;20032;-59
2023/09/09 10:21:47;;;;;;;18.80;13.48;;;;;;;25.48;66.22;101594.88;5064465;28;20036;-58
2023/09/09 10:24:14;;;;;;;12.75;11.35;;;;;;;25.55;63.46;101600.47;5072643;28;20021;-58
2023/09/09 10:26:41;;;;;;;15.15;10.98;;;;;;;25.55;63.95;101601.31;5072395;28;20107;-59
2023/09/09 10:29:12;;;;;;;11.93;9.88;;;;;;;25.59;65.37;101591.78;5071496;28;20028;-64
2023/09/09 10:31:41;;;;;;;11.13;9.40;;;;;;;25.47;59.04;101587.75;5071822;28;20426;-64
2023/09/09 10:34:09;;;;;;;;;;;;;;;25.72;60.53;101593.91;5072947;28;20454;-63
2023/09/09 10:36:37;;;;;;;10.13;8.18;;;;;;;25.60;59.81;101595.34;5072777;28;19965;-66
2023/09/09 10:39:02;;;;;;;11.80;8.80;;;;;;;25.83;61.00;101600.88;5071704;28;20111;-64
2023/09/09 10:41:30;;;;;;;11.25;9.63;;;;;;;25.85;60.98;101593.38;5071922;28;20112;-63
2023/09/09 10:43:55;;;;;;;9.65;8.75;;;;;;;25.86;62.25;101584.19;5072843;28;20030;-62
2023/09/09 10:46:37;;;;;;;11.88;10.20;;;;;;;25.99;66.62;101591.75;5072747;28;20020;-62
2023/09/09 10:49:06;;;;;;;11.45;10.15;;;;;;;26.06;64.46;101590.03;5087870;28;20361;-62
2023/09/09 10:51:51;;;;;;;9.82;7.40;;;;;;;26.16;62.89;101589.78;5070852;28;20031;-63
2023/09/09 10:54:18;;;;;;;10.57;6.65;;;;;;;26.12;60.85;101597.47;5071912;28;20036;-66
2023/09/09 10:56:48;;;;;;;11.38;7.40;;;;;;;26.21;60.97;101590.09;5071070;28;20494;-60
2023/09/09 10:59:23;;;;;;;7.60;6.85;;;;;;;26.25;58.80;101591.41;5084172;28;20029;-62
2023/09/09 11:02:07;;;;;;;8.77;6.15;;;;;;;26.33;60.20;101594.09;5102115;28;20335;-60
2023/09/09 11:04:35;;;;;;;7.53;6.10;;;;;;;26.38;59.30;101593.53;5070154;28;20020;-60